createdAt,value
2019-05-23T00:00:05.761Z,83.70
2019-05-23T00:02:34.385Z,83.80
2019-05-23T00:05:05.909Z,83.80
2019-05-23T00:07:33.454Z,83.80
2019-05-23T00:10:01.702Z,83.80
2019-05-23T00:12:42.537Z,83.80
2019-05-23T00:15:17.661Z,83.70
2019-05-23T00:17:45.389Z,83.70
2019-05-23T00:20:11.854Z,83.70
2019-05-23T00:22:40.026Z,83.90
2019-05-23T00:25:07.419Z,83.70
2019-05-23T00:27:34.141Z,83.60
2019-05-23T00:30:02.314Z,83.50
2019-05-23T00:32:33.360Z,83.40
2019-05-23T00:35:01.547Z,83.40
2019-05-23T00:37:29.726Z,83.30
2019-05-23T00:39:57.233Z,83.30
2019-05-23T00:42:25.514Z,83.30
2019-05-23T00:44:52.149Z,83.40
2019-05-23T00:47:19.202Z,83.40
2019-05-23T00:49:46.620Z,83.50
2019-05-23T00:52:12.985Z,83.60
2019-05-23T00:54:39.387Z,83.60
2019-05-23T00:57:07.326Z,83.60
2019-05-23T00:59:34.379Z,83.60
2019-05-23T01:02:01.915Z,83.50
2019-05-23T01:04:28.114Z,83.50
2019-05-23T01:06:55.614Z,83.60
2019-05-23T01:09:22.112Z,83.80
2019-05-23T01:11:48.656Z,83.90
2019-05-23T01:14:15.359Z,84.10
2019-05-23T01:16:41.905Z,84.30
2019-05-23T01:19:08.998Z,84.40
2019-05-23T01:21:53.694Z,84.50
2019-05-23T01:24:24.586Z,84.50
2019-05-23T01:26:51.822Z,84.60
2019-05-23T01:29:20.184Z,84.60
2019-05-23T01:31:48.263Z,84.80
2019-05-23T01:34:16.356Z,84.90
2019-05-23T01:36:45.470Z,85.10
2019-05-23T01:39:12.180Z,85.20
2019-05-23T01:41:39.185Z,85.30
2019-05-23T01:44:07.594Z,85.60
2019-05-23T01:46:34.050Z,85.70
2019-05-23T01:49:00.525Z,85.80
2019-05-23T01:51:26.950Z,86.00
2019-05-23T01:53:53.237Z,86.10
2019-05-23T01:56:19.549Z,86.20
2019-05-23T01:58:46.315Z,86.30
2019-05-23T02:01:13.437Z,86.20
2019-05-23T02:03:40.443Z,86.20
2019-05-23T02:06:06.868Z,86.10
2019-05-23T02:08:34.694Z,86.10
2019-05-23T02:11:01.732Z,86.00
2019-05-23T02:13:28.133Z,85.90
2019-05-23T02:15:55.022Z,86.00
2019-05-23T02:18:25.311Z,86.00
2019-05-23T02:20:51.726Z,86.00
2019-05-23T02:23:19.381Z,86.00
2019-05-23T02:25:48.301Z,85.90
2019-05-23T02:28:15.265Z,86.00
2019-05-23T02:30:41.812Z,85.90
2019-05-23T02:33:09.730Z,85.90
2019-05-23T02:35:37.200Z,85.80
2019-05-23T02:38:11.068Z,85.70
2019-05-23T02:40:39.992Z,85.20
2019-05-23T02:43:20.990Z,84.80
2019-05-23T02:45:52.376Z,84.60
2019-05-23T02:48:30.455Z,84.40
2019-05-23T02:51:13.738Z,84.20
2019-05-23T02:53:40.145Z,84.00
2019-05-23T02:56:11.566Z,83.90
2019-05-23T02:58:44.341Z,83.50
2019-05-23T03:01:14.866Z,83.40
2019-05-23T03:03:45.850Z,83.20
2019-05-23T03:06:14.178Z,82.90
2019-05-23T03:08:40.525Z,82.90
2019-05-23T03:11:19.739Z,83.00
2019-05-23T03:13:47.805Z,83.30
2019-05-23T03:16:21.204Z,83.40
2019-05-23T03:18:52.308Z,83.50
2019-05-23T03:21:19.149Z,83.50
2019-05-23T03:23:48.819Z,83.60
2019-05-23T03:26:31.559Z,83.80
2019-05-23T03:28:58.382Z,83.90
2019-05-23T03:31:35.871Z,84.10
2019-05-23T03:34:02.064Z,84.30
2019-05-23T03:36:28.776Z,84.60
2019-05-23T03:38:55.833Z,84.80
2019-05-23T03:41:22.420Z,84.70
2019-05-23T03:43:49.357Z,84.80
2019-05-23T03:46:19.375Z,84.90
2019-05-23T03:48:46.603Z,84.90
2019-05-23T03:51:14.034Z,85.10
2019-05-23T03:53:40.755Z,85.20
2019-05-23T03:56:07.038Z,85.30
2019-05-23T03:58:33.875Z,85.60
2019-05-23T04:01:02.159Z,85.70
2019-05-23T04:03:29.080Z,85.80
2019-05-23T04:05:56.317Z,86.00
2019-05-23T04:08:23.987Z,86.10
2019-05-23T04:10:52.171Z,86.30
2019-05-23T04:13:18.995Z,86.40
2019-05-23T04:15:45.299Z,86.50
2019-05-23T04:18:11.396Z,86.60
2019-05-23T04:20:37.700Z,86.70
2019-05-23T04:23:04.104Z,86.80
2019-05-23T04:25:30.613Z,86.90
2019-05-23T04:27:57.398Z,86.90
2019-05-23T04:30:23.920Z,87.10
2019-05-23T04:32:50.120Z,87.10
2019-05-23T04:35:16.312Z,87.10
2019-05-23T04:37:42.427Z,87.10
2019-05-23T04:40:10.662Z,87.90
2019-05-23T04:42:37.044Z,87.20
2019-05-23T04:45:06.955Z,87.20
2019-05-23T04:47:33.771Z,87.20
2019-05-23T04:50:03.715Z,87.30
2019-05-23T04:52:30.341Z,87.30
2019-05-23T04:54:56.946Z,87.50
2019-05-23T04:57:23.961Z,87.60
2019-05-23T04:59:50.201Z,87.70
2019-05-23T05:02:26.125Z,87.90
2019-05-23T05:04:46.409Z,88.00
2019-05-23T05:07:12.842Z,88.00
2019-05-23T05:09:39.043Z,88.00
2019-05-23T05:12:06.132Z,88.00
2019-05-23T05:14:32.366Z,87.80
2019-05-23T05:16:59.768Z,87.70
2019-05-23T05:19:25.961Z,87.80
2019-05-23T05:21:52.165Z,88.20
2019-05-23T05:24:18.418Z,87.50
2019-05-23T05:26:46.387Z,87.50
2019-05-23T05:29:12.665Z,87.70
2019-05-23T05:31:38.850Z,87.50
2019-05-23T05:34:05.075Z,87.50
2019-05-23T05:36:31.175Z,87.30
2019-05-23T05:38:57.475Z,87.10
2019-05-23T05:41:23.773Z,87.00
2019-05-23T05:43:49.994Z,86.80
2019-05-23T05:46:16.547Z,86.70
2019-05-23T05:48:42.910Z,86.60
2019-05-23T05:51:09.894Z,86.60
2019-05-23T05:53:36.013Z,86.20
2019-05-23T05:56:02.372Z,86.00
2019-05-23T05:58:28.585Z,85.80
2019-05-23T06:00:56.802Z,85.60
2019-05-23T06:03:23.293Z,85.30
2019-05-23T06:06:03.602Z,85.30
2019-05-23T06:08:31.698Z,85.00
2019-05-23T06:10:57.912Z,84.70
2019-05-23T06:13:24.113Z,84.20
2019-05-23T06:15:50.830Z,83.80
2019-05-23T06:18:16.926Z,83.10
2019-05-23T06:20:44.367Z,82.70
2019-05-23T06:23:11.248Z,82.10
2019-05-23T06:25:37.489Z,81.50
2019-05-23T06:28:04.773Z,80.80
2019-05-23T06:30:32.824Z,80.50
2019-05-23T06:32:59.352Z,80.20
2019-05-23T06:35:27.065Z,79.80
2019-05-23T06:37:53.260Z,79.00
2019-05-23T06:40:20.144Z,78.40
2019-05-23T06:42:50.291Z,78.10
2019-05-23T06:45:15.624Z,77.60
2019-05-23T06:47:41.916Z,76.90
2019-05-23T06:50:16.052Z,76.10
2019-05-23T06:52:42.667Z,75.50
2019-05-23T06:55:09.035Z,74.80
2019-05-23T06:57:35.141Z,74.50
2019-05-23T07:00:01.284Z,74.00
2019-05-23T07:02:31.712Z,73.60
2019-05-23T07:04:55.534Z,73.30
2019-05-23T07:07:21.839Z,72.60
2019-05-23T07:09:47.939Z,72.30
2019-05-23T07:12:14.225Z,72.30
2019-05-23T07:14:42.199Z,72.20
2019-05-23T07:17:09.806Z,71.90
2019-05-23T07:19:36.423Z,71.70
2019-05-23T07:22:02.613Z,71.50
2019-05-23T07:24:34.441Z,71.40
2019-05-23T07:27:00.753Z,71.50
2019-05-23T07:29:26.877Z,69.90
2019-05-23T07:31:53.392Z,69.50
2019-05-23T07:34:19.731Z,69.80
2019-05-23T07:36:46.694Z,69.30
2019-05-23T07:39:12.907Z,69.30
2019-05-23T07:41:39.147Z,69.40
2019-05-23T07:44:07.186Z,68.30
2019-05-23T07:46:33.992Z,67.50
2019-05-23T07:49:00.200Z,66.50
2019-05-23T07:51:29.648Z,65.90
2019-05-23T07:54:11.804Z,65.50
2019-05-23T07:56:39.902Z,65.40
2019-05-23T07:59:06.093Z,64.50
2019-05-23T08:01:35.094Z,63.50
2019-05-23T08:04:19.736Z,63.00
2019-05-23T08:06:30.175Z,62.70
2019-05-23T08:08:57.168Z,61.40
2019-05-23T08:11:23.587Z,60.00
2019-05-23T08:13:50.557Z,59.70
2019-05-23T08:16:17.343Z,59.70
2019-05-23T08:18:43.566Z,59.50
2019-05-23T08:21:09.862Z,59.30
2019-05-23T08:23:36.980Z,59.20
2019-05-23T08:26:03.566Z,58.00
2019-05-23T08:28:31.362Z,58.50
2019-05-23T08:30:57.564Z,58.50
2019-05-23T08:33:24.866Z,59.00
2019-05-23T08:35:51.379Z,56.70
2019-05-23T08:38:18.088Z,55.90
2019-05-23T08:40:45.539Z,55.50
2019-05-23T08:43:12.299Z,55.20
2019-05-23T08:45:38.879Z,54.90
2019-05-23T08:48:06.089Z,53.20
2019-05-23T08:50:32.499Z,53.50
2019-05-23T08:52:58.679Z,52.80
2019-05-23T08:55:25.186Z,51.40
2019-05-23T08:57:53.180Z,50.10
2019-05-23T09:00:20.117Z,49.60
2019-05-23T09:02:47.890Z,49.10
2019-05-23T09:05:17.780Z,49.50
2019-05-23T09:07:44.009Z,49.70
2019-05-23T09:10:10.538Z,50.30
2019-05-23T09:12:37.241Z,50.90
2019-05-23T09:15:09.372Z,51.10
2019-05-23T09:17:51.058Z,51.20
2019-05-23T09:20:01.279Z,51.20
2019-05-23T09:22:28.178Z,51.60
2019-05-23T09:24:54.428Z,50.20
2019-05-23T09:27:20.723Z,50.70
2019-05-23T09:29:47.001Z,51.40
2019-05-23T09:32:13.424Z,51.20
2019-05-23T09:34:41.549Z,51.50
2019-05-23T09:37:08.748Z,51.90
2019-05-23T09:39:34.848Z,52.30
2019-05-23T09:42:03.833Z,52.80
2019-05-23T09:44:30.085Z,52.10
2019-05-23T09:46:56.256Z,52.50
2019-05-23T09:49:23.061Z,53.20
2019-05-23T09:51:51.386Z,53.60
2019-05-23T09:54:17.979Z,53.20
2019-05-23T09:56:44.277Z,52.40
2019-05-23T09:59:10.484Z,52.20
2019-05-23T10:01:37.064Z,52.00
2019-05-23T10:04:03.969Z,52.00
2019-05-23T10:06:30.221Z,52.30
2019-05-23T10:08:56.391Z,51.90
2019-05-23T10:11:22.580Z,51.20
2019-05-23T10:13:51.569Z,51.00
2019-05-23T10:16:18.276Z,52.60
2019-05-23T10:18:44.465Z,51.60
2019-05-23T10:21:10.868Z,51.10
2019-05-23T10:23:37.066Z,50.50
2019-05-23T10:26:04.685Z,50.60
2019-05-23T10:28:31.077Z,50.40
2019-05-23T10:30:57.302Z,50.80
2019-05-23T10:33:23.531Z,49.30
2019-05-23T10:35:59.679Z,49.60
2019-05-23T10:38:17.839Z,49.30
2019-05-23T10:40:44.225Z,48.60
2019-05-23T10:43:10.635Z,47.00
2019-05-23T10:45:36.866Z,44.60
2019-05-23T10:48:04.934Z,44.80
2019-05-23T10:50:43.550Z,45.80
2019-05-23T10:52:59.250Z,45.20
2019-05-23T10:55:25.390Z,43.60
2019-05-23T10:57:51.734Z,43.20
2019-05-23T11:00:19.395Z,41.80
2019-05-23T11:02:46.492Z,40.90
2019-05-23T11:05:14.291Z,41.10
2019-05-23T11:07:40.840Z,40.40
2019-05-23T11:10:08.434Z,38.50
2019-05-23T11:12:34.643Z,36.50
2019-05-23T11:15:03.994Z,35.40
2019-05-23T11:17:30.560Z,36.20
2019-05-23T11:19:56.805Z,35.80
2019-05-23T11:22:23.793Z,35.20
2019-05-23T11:24:50.039Z,34.00
2019-05-23T11:27:17.154Z,32.80
2019-05-23T11:29:43.433Z,33.80
2019-05-23T11:32:10.253Z,32.90
2019-05-23T11:34:36.783Z,32.30
2019-05-23T11:37:03.212Z,31.30
2019-05-23T11:39:29.341Z,30.50
2019-05-23T11:41:55.557Z,31.00
2019-05-23T11:44:21.771Z,30.90
2019-05-23T11:46:49.894Z,31.20
2019-05-23T11:49:16.113Z,31.30
2019-05-23T11:51:45.681Z,31.90
2019-05-23T11:54:12.013Z,32.20
2019-05-23T11:56:39.243Z,32.00
2019-05-23T11:59:05.641Z,32.40
2019-05-23T12:01:34.361Z,33.00
2019-05-23T12:04:02.697Z,32.40
2019-05-23T12:06:53.560Z,32.60
2019-05-23T12:09:05.717Z,32.80
2019-05-23T12:11:36.366Z,33.10
2019-05-23T12:14:00.330Z,32.50
2019-05-23T12:16:27.127Z,33.20
2019-05-23T12:18:53.261Z,33.80
2019-05-23T12:21:19.993Z,34.20
2019-05-23T12:23:46.227Z,34.30
2019-05-23T12:26:12.316Z,34.00
2019-05-23T12:28:38.757Z,33.80
2019-05-23T12:31:06.838Z,34.50
2019-05-23T12:33:33.225Z,34.70
2019-05-23T12:35:59.424Z,34.10
2019-05-23T12:38:25.615Z,33.20
2019-05-23T12:40:51.857Z,33.10
2019-05-23T12:43:18.201Z,32.30
2019-05-23T12:45:44.386Z,32.50
2019-05-23T12:48:15.482Z,33.70
2019-05-23T12:50:46.505Z,34.30
2019-05-23T12:53:14.767Z,34.20
2019-05-23T12:55:41.070Z,34.80
2019-05-23T12:58:07.294Z,33.90
2019-05-23T13:00:41.652Z,32.90
2019-05-23T13:03:08.973Z,32.00
2019-05-23T13:05:35.832Z,32.10
2019-05-23T13:08:06.197Z,33.00
2019-05-23T13:10:32.253Z,33.10
2019-05-23T13:12:58.497Z,33.10
2019-05-23T13:15:25.137Z,33.80
2019-05-23T13:17:51.693Z,33.00
2019-05-23T13:20:18.689Z,31.60
2019-05-23T13:22:45.072Z,31.30
2019-05-23T13:25:11.863Z,30.80
2019-05-23T13:27:37.970Z,31.40
2019-05-23T13:30:06.143Z,31.60
2019-05-23T13:32:32.343Z,31.00
2019-05-23T13:34:58.496Z,31.00
2019-05-23T13:37:25.716Z,30.40
2019-05-23T13:39:51.959Z,29.90
2019-05-23T13:42:18.368Z,29.20
2019-05-23T13:44:45.064Z,28.40
2019-05-23T13:47:11.846Z,27.60
2019-05-23T13:49:38.248Z,27.10
2019-05-23T13:52:05.925Z,27.10
2019-05-23T13:54:36.238Z,27.20
2019-05-23T13:57:02.374Z,26.50
2019-05-23T13:59:28.871Z,27.30
2019-05-23T14:01:55.880Z,28.10
2019-05-23T14:04:22.395Z,27.60
2019-05-23T14:06:48.495Z,28.10
2019-05-23T14:09:16.104Z,28.10
2019-05-23T14:11:42.283Z,27.80
2019-05-23T14:14:09.124Z,26.70
2019-05-23T14:16:37.832Z,27.00
2019-05-23T14:19:04.759Z,25.00
2019-05-23T14:21:32.871Z,25.30
2019-05-23T14:24:00.614Z,26.40
2019-05-23T14:26:28.595Z,25.00
2019-05-23T14:28:54.809Z,24.80
2019-05-23T14:31:22.258Z,24.80
2019-05-23T14:33:50.537Z,23.20
2019-05-23T14:36:35.759Z,23.70
2019-05-23T14:39:04.660Z,24.30
2019-05-23T14:41:45.135Z,24.30
2019-05-23T14:44:06.629Z,24.60
2019-05-23T14:49:26.347Z,23.80
2019-05-23T14:52:03.910Z,24.60
2019-05-23T14:54:37.517Z,25.00
2019-05-23T14:57:04.815Z,25.40
2019-05-23T14:59:31.431Z,25.70
2019-05-23T15:01:58.206Z,26.70
2019-05-23T15:04:24.763Z,27.20
2019-05-23T15:06:50.858Z,26.80
2019-05-23T15:09:20.656Z,27.30
2019-05-23T15:11:44.978Z,27.90
2019-05-23T15:14:11.097Z,27.90
2019-05-23T15:16:37.382Z,27.70
2019-05-23T15:19:03.785Z,27.70
2019-05-23T15:21:29.972Z,28.00
2019-05-23T15:23:56.058Z,28.30
2019-05-23T15:26:23.865Z,28.90
2019-05-23T15:28:51.045Z,29.40
2019-05-23T15:31:17.503Z,29.80
2019-05-23T15:33:43.777Z,30.60
2019-05-23T15:36:09.966Z,31.10
2019-05-23T15:38:36.137Z,31.40
2019-05-23T15:41:02.548Z,32.00
2019-05-23T15:43:28.731Z,31.60
2019-05-23T15:45:55.037Z,32.00
2019-05-23T15:48:21.231Z,32.70
2019-05-23T15:50:51.489Z,32.70
2019-05-23T15:53:34.807Z,32.80
2019-05-23T15:56:27.648Z,33.30
2019-05-23T15:58:51.300Z,33.70
2019-05-23T16:01:19.419Z,34.10
2019-05-23T16:03:47.852Z,34.20
2019-05-23T16:06:16.131Z,33.90
2019-05-23T16:08:42.253Z,33.90
2019-05-23T16:11:08.360Z,33.20
2019-05-23T16:13:34.660Z,33.00
2019-05-23T16:16:01.459Z,33.00
2019-05-23T16:18:27.760Z,33.00
2019-05-23T16:20:53.977Z,32.90
2019-05-23T16:23:20.415Z,32.90
2019-05-23T16:25:46.692Z,32.80
2019-05-23T16:28:12.793Z,32.70
2019-05-23T16:30:39.272Z,32.20
2019-05-23T16:33:05.593Z,31.90
2019-05-23T16:35:32.307Z,31.70
2019-05-23T16:37:58.548Z,32.20
2019-05-23T16:40:24.695Z,32.60
2019-05-23T16:42:50.820Z,32.80
2019-05-23T16:45:17.004Z,33.70
2019-05-23T16:47:43.240Z,34.10
2019-05-23T16:50:10.639Z,34.70
2019-05-23T16:52:36.901Z,34.60
2019-05-23T16:55:06.671Z,34.80
2019-05-23T16:57:44.074Z,35.20
2019-05-23T17:00:12.965Z,35.40
2019-05-23T17:02:40.948Z,35.60
2019-05-23T17:05:16.432Z,35.60
2019-05-23T17:07:44.788Z,35.70
2019-05-23T17:10:19.643Z,35.90
2019-05-23T17:12:53.421Z,36.30
2019-05-23T17:15:21.394Z,35.90
2019-05-23T17:18:03.885Z,35.50
2019-05-23T17:20:34.504Z,35.80
2019-05-23T17:23:02.697Z,35.90
2019-05-23T17:25:43.008Z,36.60
2019-05-23T17:28:16.935Z,36.60
2019-05-23T17:30:47.818Z,36.60
2019-05-23T17:33:14.016Z,36.90
2019-05-23T17:35:40.426Z,37.30
2019-05-23T17:38:10.156Z,37.50
2019-05-23T17:40:36.469Z,37.80
2019-05-23T17:43:05.861Z,38.10
2019-05-23T17:45:32.633Z,38.20
2019-05-23T17:47:59.970Z,38.40
2019-05-23T17:50:26.628Z,38.50
2019-05-23T17:52:52.959Z,38.40
2019-05-23T17:55:19.698Z,38.60
2019-05-23T17:57:46.157Z,38.40
2019-05-23T18:00:16.030Z,38.70
2019-05-23T18:02:42.510Z,39.10
2019-05-23T18:05:09.443Z,39.10
2019-05-23T18:07:37.650Z,39.20
2019-05-23T18:10:06.955Z,39.20
2019-05-23T18:12:33.273Z,39.60
2019-05-23T18:14:59.397Z,39.70
2019-05-23T18:17:25.697Z,39.70
2019-05-23T18:19:51.777Z,39.70
2019-05-23T18:22:19.030Z,39.60
2019-05-23T18:24:45.305Z,39.70
2019-05-23T18:27:11.875Z,40.10
2019-05-23T18:29:38.283Z,40.50
2019-05-23T18:32:07.400Z,40.70
2019-05-23T18:34:34.915Z,40.60
2019-05-23T18:37:01.131Z,40.50
2019-05-23T18:39:27.234Z,40.50
2019-05-23T18:45:29.156Z,40.20
2019-05-23T18:47:55.888Z,40.50
2019-05-23T18:50:22.137Z,40.90
2019-05-23T18:52:51.848Z,41.10
2019-05-23T18:55:17.298Z,41.20
2019-05-23T18:57:43.501Z,41.10
2019-05-23T19:00:10.705Z,41.10
2019-05-23T19:02:37.021Z,41.40
2019-05-23T19:05:11.408Z,42.00
2019-05-23T19:07:39.540Z,42.50
2019-05-23T19:10:08.484Z,42.80
2019-05-23T19:12:35.270Z,43.00
2019-05-23T19:15:02.799Z,43.30
2019-05-23T19:17:28.987Z,43.20
2019-05-23T19:19:55.261Z,43.60
2019-05-23T19:22:21.922Z,43.80
2019-05-23T19:24:48.056Z,44.10
2019-05-23T19:27:15.073Z,44.30
2019-05-23T19:29:41.899Z,44.40
2019-05-23T19:32:09.116Z,44.80
2019-05-23T19:34:37.202Z,45.60
2019-05-23T19:37:05.138Z,46.10
2019-05-23T19:39:36.020Z,46.50
2019-05-23T19:42:02.927Z,46.90
2019-05-23T19:44:29.256Z,47.40
2019-05-23T19:46:55.785Z,47.60
2019-05-23T19:49:22.151Z,48.00
2019-05-23T19:51:50.321Z,48.20
2019-05-23T19:54:17.405Z,48.20
2019-05-23T19:56:43.784Z,48.50
2019-05-23T19:59:10.758Z,49.00
2019-05-23T20:01:43.932Z,49.40
2019-05-23T20:04:10.562Z,49.80
2019-05-23T20:06:37.743Z,50.40
2019-05-23T20:09:09.531Z,51.00
2019-05-23T20:11:35.249Z,51.50
2019-05-23T20:14:01.584Z,52.00
2019-05-23T20:16:27.984Z,52.40
2019-05-23T20:18:54.599Z,52.90
2019-05-23T20:21:22.812Z,53.40
2019-05-23T20:23:49.528Z,53.80
2019-05-23T20:26:18.957Z,54.20
2019-05-23T20:28:45.409Z,54.60
2019-05-23T20:31:14.322Z,55.00
2019-05-23T20:33:48.456Z,55.20
2019-05-23T20:36:20.787Z,55.50
2019-05-23T20:38:47.138Z,55.60
2019-05-23T20:41:13.542Z,55.90
2019-05-23T20:43:39.853Z,56.30
2019-05-23T20:46:06.113Z,56.60
2019-05-23T20:48:32.527Z,56.80
2019-05-23T20:50:58.727Z,57.00
2019-05-23T20:53:25.029Z,57.50
2019-05-23T20:55:51.261Z,57.90
2019-05-23T20:58:17.555Z,58.10
2019-05-23T21:00:55.203Z,58.40
2019-05-23T21:03:22.420Z,58.70
2019-05-23T21:05:48.723Z,58.90
2019-05-23T21:08:14.917Z,59.30
2019-05-23T21:10:46.893Z,59.50
2019-05-23T21:13:13.161Z,59.70
2019-05-23T21:15:40.871Z,59.70
2019-05-23T21:18:07.353Z,59.60
2019-05-23T21:20:37.224Z,59.50
2019-05-23T21:23:04.211Z,59.30
2019-05-23T21:25:33.743Z,59.40
2019-05-23T21:27:59.976Z,59.40
2019-05-23T21:30:26.881Z,59.50
2019-05-23T21:32:53.407Z,59.40
2019-05-23T21:36:39.653Z,59.60
2019-05-23T21:38:02.910Z,59.90
2019-05-23T21:40:38.668Z,60.30
2019-05-23T21:43:09.486Z,60.70
2019-05-23T21:45:36.201Z,61.00
2019-05-23T21:48:02.565Z,61.20
2019-05-23T21:50:28.727Z,61.20
2019-05-23T21:52:55.028Z,61.10
2019-05-23T21:55:36.569Z,61.10
2019-05-23T21:58:03.868Z,60.70
2019-05-23T22:00:44.652Z,60.30
2019-05-23T22:03:11.422Z,60.20
2019-05-23T22:05:37.513Z,60.00
2019-05-23T22:08:03.622Z,59.80
2019-05-23T22:10:29.890Z,59.30
2019-05-23T22:13:04.298Z,59.00
2019-05-23T22:15:35.395Z,58.70
2019-05-23T22:18:01.691Z,58.40
2019-05-23T22:20:27.892Z,58.10
2019-05-23T22:22:54.019Z,57.90
2019-05-23T22:25:23.907Z,57.70
2019-05-23T22:27:50.215Z,57.60
2019-05-23T22:30:16.606Z,57.10
2019-05-23T22:32:42.688Z,57.70
2019-05-23T22:35:10.812Z,57.70
2019-05-23T22:37:37.521Z,57.40
2019-05-23T22:40:05.676Z,57.40
2019-05-23T22:42:33.867Z,57.60
2019-05-23T22:45:00.397Z,57.60
2019-05-23T22:47:26.760Z,57.80
2019-05-23T22:49:52.850Z,58.10
2019-05-23T22:52:19.080Z,58.40
2019-05-23T22:54:45.311Z,58.70
2019-05-23T22:57:11.496Z,59.00
2019-05-23T22:59:37.840Z,59.40
2019-05-23T23:02:05.865Z,59.50
2019-05-23T23:04:32.060Z,59.50
2019-05-23T23:06:58.172Z,60.10
2019-05-23T23:09:24.466Z,59.40
2019-05-23T23:11:50.668Z,59.20
2019-05-23T23:14:16.846Z,59.30
2019-05-23T23:16:42.961Z,59.30
2019-05-23T23:19:09.235Z,59.60
2019-05-23T23:21:35.398Z,60.00
2019-05-23T23:24:03.940Z,60.30
2019-05-23T23:26:30.024Z,60.70
2019-05-23T23:28:56.144Z,61.10
2019-05-23T23:31:22.243Z,61.80
2019-05-23T23:33:48.335Z,62.20
2019-05-23T23:36:15.292Z,62.70
2019-05-23T23:38:41.395Z,63.10
2019-05-23T23:41:07.491Z,63.70
2019-05-23T23:43:33.577Z,64.00
2019-05-23T23:46:17.931Z,64.50
2019-05-23T23:49:02.803Z,65.00
2019-05-23T23:51:47.608Z,65.80
2019-05-23T23:54:32.564Z,66.60
2019-05-23T23:57:17.326Z,67.50
2019-05-23T23:59:43.320Z,68.10
